The University of Tennessee Institute of Agriculture
Tmail  /  Online@UT  /  A-Z Index

Biosystems Engineering & Soil Science


West Tennessee, Cotton farm, Haywood County, daily data

Show metric units       Show half-hour records
Date Solar rad
mJ/m2
Precip
(in)
Air temp
(deg F)
Max Min Avg
Rel humid (%)
Max Min Avg
Avg
windspeed
(mi/hr)
Soil temp
6" (deg F)
Max Min Avg
Soil temp
12" (deg F)
Max Min Avg
Evap.
trans.
(in)
1/1/16 9.0 045  32  3788  41  70354  54  5432  32  32--
1/2/16 9.2 048  28  3794  36  69254  52  5332  32  32--
1/3/16 10.8 052  30  4086  38  66352  50  5232  32  32--
1/4/16 4.4 037  28  3279  55  66550  50  5032  32  32--
1/5/16 11.2 045  23  3286  37  62250  50  5032  32  32--
1/6/16 11.1 048  28  3769  39  55450  48  4832  32  32--
1/7/16 4.3 0.0850  30  4196  65  79448  48  4832  32  32--
1/8/16 3.8 0.2157  48  5298  76  91448  48  4832  32  320.03
1/9/16 2.2 0.8555  34  5098  84  94550  48  4932  32  320.02
1/10/16 11.0 0.0434  21  2798  55  72248  46  4832  32  32--
1/11/16 10.7 041  18  2992  40  65248  48  4832  32  32--
1/12/16 11.3 048  32  3873  43  58448  46  4732  32  32--
1/13/16 11.7 054  23  3674  34  54246  46  4632  32  32--
1/14/16 10.7 061  39  5071  35  54446  46  4632  32  32--
1/15/16 4.5 0.1359  43  5194  56  78546  46  4632  32  320.03
1/16/16 7.7 043  32  3879  57  70448  46  4832  32  32--
1/17/16 11.8 039  27  3388  46  69448  46  4832  32  32--
1/18/16 12.2 027  16  2070  39  53546  46  4632  32  32--
1/19/16 2.7 028  14  2187  51  66346  45  4632  32  32--
1/20/16 2.4 0.1432  28  3197  49  86345  45  4532  32  32--
1/21/16 1.3 0.1536  30  3399  97  98445  45  4532  32  32--
1/22/16 2.6 032  28  3098  72  91145  45  4532  32  32--
1/23/16 11.2 0.1132  25  2881  55  72145  45  4532  32  32--
1/24/16 12.0 048  19  3292  38  66245  43  4332  32  32--
1/25/16 6.5 059  36  4778  59  67643  43  4332  32  32--
1/26/16 6.9 0.1657  34  4190  62  76445  43  4432  32  32--
1/27/16 13.2 041  27  3387  53  74345  45  4532  32  32--
1/28/16 11.2 057  25  3995  34  68345  45  4532  32  32--
1/29/16 13.2 057  32  4595  38  63245  45  4532  32  32--
1/30/16 12.8 068  43  5571  47  60545  45  4532  32  320.08
1/31/16 9.3 072  57  6478  53  66746  45  4532  32  320.08
2/1/16 4.4 0.2866  46  5396  66  83448  46  4732  32  320.03
2/2/16 2.8 1.1270  50  6199  63  92652  48  4932  32  320.03
2/3/16 12.9 063  37  4870  40  55752  50  5032  32  32--
2/4/16 14.4 043  28  3589  36  64350  48  5032  32  32--
2/5/16 13.1 052  27  3889  26  57248  48  4832  32  32--
2/6/16 13.5 054  28  4287  24  48148  46  4732  32  32--
2/7/16 13.3 057  34  4564  25  45346  46  4632  32  32--
2/8/16 5.1 046  34  4059  39  50846  46  4632  32  32--
2/9/16 6.5 034  25  2989  49  65546  46  4632  32  32--
2/10/16 10.5 036  21  2770  28  48446  45  4532  32  32--
2/11/16 14.7 046  25  3468  35  53445  45  4532  32  32--
2/12/16 14.9 046  30  3881  44  61345  45  4532  32  32--
2/13/16 12.7 034  23  2871  32  49545  45  4532  32  32--
2/14/16 3.2 0.0946  25  3296  37  59445  43  4432  32  32--
2/15/16 1.8 0.3245  32  3899  96  98343  43  4332  32  32--
2/16/16 3.6 0.0550  36  4099  71  91545  43  4332  32  32--
2/17/16 10.5 052  37  4292  54  79345  45  4532  32  32--
2/18/16 15.6 066  34  4994  30  63545  45  4532  32  32--
2/19/16 11.3 070  52  6167  43  53846  45  4532  32  320.08
2/20/16 5.7 068  61  6478  68  73446  46  4632  32  320.05
2/21/16 6.2 0.0670  59  6496  74  81348  46  4832  32  320.06
2/22/16 4.1 0.0457  45  4983  68  76450  48  5032  32  32--
2/23/16 5.2 1.2354  39  4799  76  87450  50  5032  32  32--
2/24/16 3.1 0.6350  36  4299  67  87950  48  4932  32  32--
2/25/16 10.4 046  34  4079  41  62648  48  4832  32  32--
2/26/16 17.4 048  30  3782  43  65348  48  4832  32  32--
2/27/16 17.6 064  36  4880  28  54448  46  4732  32  32--
2/28/16 17.7 068  50  5855  26  44748  46  4732  32  320.13
2/29/16 18.0 066  43  5683  21  48348  48  4832  32  320.12
3/1/16 3.4 0.3361  41  5494  45  73548  48  4832  32  320.03
3/2/16 15.9 050  28  4090  46  68250  48  4932  32  32--
3/3/16 3.4 0.0950  41  4589  62  79448  48  4832  32  32--
3/4/16 10.4 052  39  4696  56  79248  48  4832  32  32--
3/5/16 18.7 066  36  5098  26  66448  48  4832  32  32--
3/6/16 18.5 070  34  5392  26  53348  48  4832  32  320.11
3/7/16 14.3 070  57  6256  31  42550  48  4832  32  320.12
3/8/16 14.1 075  54  6677  50  62550  50  5032  32  320.11
3/9/16 1.6 3.3168  57  60100  50  93454  50  5232  32  320.02
3/10/16 1.2 3.8463  54  61100  97  99555  54  5432  32  320.02
3/11/16 2.9 0.0557  52  5599  94  97354  54  5432  32  320.03
3/12/16 4.8 3.0668  55  61100  83  97254  54  5432  32  320.04
3/13/16 12.6 0.7472  59  63100  61  85354  54  5432  32  320.10
3/14/16 19.4 0.6572  55  6298  53  79455  54  5532  32  320.14
3/15/16 19.7 084  55  7088  38  64555  55  5532  32  320.15
3/16/16 20.4 073  52  6271  25  47455  55  5532  32  320.15
3/17/16 16.1 070  45  5777  20  49155  55  5532  32  320.11
3/18/16 14.9 070  43  5771  27  49255  55  5532  32  320.10
3/19/16 8.6 0.0154  41  4781  50  70655  55  5532  32  32--
3/20/16 11.8 0.0145  34  4186  40  60555  54  5432  32  32--
3/21/16 21.4 057  32  4492  28  59354  52  5332  32  32--
3/22/16 21.7 070  41  5569  18  42652  52  5232  32  320.15
3/23/16 8.3 073  55  6369  39  56752  52  5232  32  320.07
3/24/16 9.1 0.1068  48  6293  54  67854  52  5332  32  320.07
3/25/16 16.6 055  41  4775  50  63454  54  5432  32  32--
3/26/16 21.8 073  36  5295  30  66254  54  5432  32  320.13
3/27/16 12.7 0.0675  48  6192  64  76454  54  5432  32  320.09
3/28/16 22.3 063  39  5186  33  60454  54  5432  32  320.12
3/29/16 22.3 068  39  5484  32  56254  54  5432  32  320.13
3/30/16 11.8 0.0875  46  6280  44  59554  54  5432  32  320.09
3/31/16 7.0 2.7570  61  6599  80  92457  54  5632  32  320.06
4/1/16 15.7 066  48  5685  35  58457  55  5632  32  320.10
4/2/16 23.1 061  43  5286  36  58555  55  5532  32  320.13
4/3/16 23.5 072  41  5773  24  46355  54  5532  32  320.16
4/4/16 22.7 075  54  6559  25  41455  55  5532  32  320.19
4/5/16 23.2 066  43  5471  34  51455  55  5532  32  320.14
4/6/16 9.9 0.2372  50  5891  37  54655  55  5532  32  320.07
4/7/16 23.5 068  48  5882  26  52555  55  5532  32  320.15
4/8/16 22.1 061  43  5283  24  51555  55  5532  32  320.13
4/9/16 23.9 059  41  4863  21  40355  54  5532  32  32--
4/10/16 17.6 081  43  6178  24  45654  54  5432  32  320.13
4/11/16 2.1 0.4470  52  6297  39  79655  54  5432  32  320.03
4/12/16 24.5 064  45  5392  31  60455  55  5532  32  320.14
4/13/16 13.6 0.0166  43  5486  38  59255  55  5532  32  320.09
4/14/16 15.6 070  50  6096  69  81255  55  5532  32  320.11
4/15/16 13.6 0.1572  57  6299  53  80355  55  5532  32  320.10
4/16/16 20.4 075  54  6585  53  69355  55  5532  32  320.15
4/17/16 24.7 079  54  6793  36  59357  55  5732  32  320.18
4/18/16 22.7 079  52  6668  33  46357  57  5732  32  320.18
4/19/16 9.1 0.0370  55  6392  47  68157  57  5732  32  320.07
4/20/16 10.5 0.1975  59  6596  49  79357  57  5732  32  320.09
4/21/16 12.9 1.4875  63  6699  62  86363  57  6032  32  320.10
4/22/16 23.6 073  57  6596  48  68359  59  5932  32  320.17
4/23/16 24.9 077  54  6498  44  73259  59  5932  32  320.18
4/24/16 25.2 082  52  6798  36  66259  59  5932  32  320.19
4/25/16 22.4 082  61  7281  41  59359  59  5932  32  320.18
4/26/16 18.4 084  64  7384  52  70361  59  5932  32  320.15
4/27/16 9.2 077  63  7095  63  83461  61  6132  32  320.08
4/28/16 25.8 082  64  7297  30  64361  61  6132  32  320.20
4/29/16 4.8 0.7868  55  6299  69  81261  61  6132  32  320.04
4/30/16 10.8 0.2077  61  6699  62  87161  61  6132  32  320.09
5/1/16 17.9 0.1882  63  7099  60  86261  61  6132  32  320.14
5/2/16 6.5 0.5766  55  6198  69  87263  61  6232  32  320.05
5/3/16 13.1 066  54  5994  56  76361  61  6132  32  320.09
5/4/16 23.0 073  48  6199  37  66461  61  6132  32  320.16
5/5/16 26.4 066  48  5890  31  58461  61  6132  32  320.17
5/6/16 26.6 073  46  6095  33  62261  59  6032  32  320.18
5/7/16 26.3 084  55  6973  31  52459  59  5932  32  320.20
5/8/16 23.9 084  59  7276  31  52361  59  6032  32  320.19
5/9/16 9.3 0.0273  63  6988  53  75461  61  6132  32  320.08
5/10/16 19.6 0.7082  61  7299  58  79561  61  6132  32  320.16
5/11/16 24.5 088  70  7889  51  71463  61  6232  32  320.20
5/12/16 14.2 0.3977  63  7198  62  82363  63  6332  32  320.12
5/13/16 27.4 077  52  6793  28  55263  63  6332  32  320.20
5/14/16 24.5 063  52  5978  39  58463  63  6332  32  320.16
5/15/16 27.1 070  45  5898  28  59163  63  6332  32  320.17
5/16/16 9.6 0.0368  54  5994  51  69263  61  6232  32  320.07
5/17/16 18.8 0.1181  55  6699  48  79261  61  6132  32  320.14
5/18/16 7.4 063  54  5896  66  82061  61  6132  32  320.06
5/19/16 25.6 077  50  6398  41  68261  61  6132  32  320.18
5/20/16 10.2 1.1772  57  63100  66  88261  61  6132  32  320.08
5/21/16 24.4 075  57  66100  45  75261  61  6132  32  320.18
5/22/16 27.8 081  55  68100  28  63261  61  6132  32  320.21
5/23/16 26.2 084  52  6999  34  63161  61  6132  32  320.20
5/24/16 20.5 0.3086  61  7398  40  66263  61  6132  32  320.17
5/25/16 12.2 0.6982  63  70100  68  91363  63  6332  32  320.10
5/26/16 18.2 1.8388  64  73100  61  84368  63  6332  32  320.15
5/27/16 13.1 0.0582  66  73100  59  81366  64  6532  32  320.11
5/28/16 17.9 086  66  7597  54  77264  64  6432  32  320.15
5/29/16 25.2 088  66  77100  46  76264  64  6432  32  320.21
5/30/16 26.9 091  66  79100  35  67166  64  6632  32  320.22
5/31/16 18.5 088  70  7698  50  74166  66  6632  32  320.16
6/1/16 18.9 0.3090  66  75100  50  82266  66  6632  32  320.16
6/2/16 20.1 0.0186  66  75100  53  81166  66  6632  32  320.17
6/3/16 14.1 0.8888  70  74100  56  88166  66  6632  32  320.12
6/4/16 15.7 0.8581  70  73100  71  92273  66  6832  32  320.13
6/5/16 26.1 0.0184  68  76100  41  74272  68  6932  32  320.21
6/6/16 28.3 088  63  75100  39  69168  68  6832  32  320.23
6/7/16 28.5 084  66  7588  35  61268  68  6832  32  320.23
6/8/16 28.5 084  57  72100  37  62168  68  6832  32  320.22
6/9/16 26.8 090  59  7595  36  59168  66  6732  32  320.22
6/10/16 28.4 091  61  7896  32  58268  66  6732  32  320.23
6/11/16 26.8 093  66  8197  40  63268  66  6732  32  320.23
6/12/16 20.5 093  73  8296  46  73268  68  6832  32  320.18
6/13/16 25.8 095  72  82100  46  74268  68  6832  32  320.22
6/14/16 23.3 0.0290  73  8199  55  77370  68  6832  32  320.20
6/15/16 21.8 0.0593  73  81100  57  83370  70  7032  32  320.19
6/16/16 25.7 097  70  8399  47  76270  70  7032  32  320.22
6/17/16 24.8 091  77  8496  47  71370  70  7032  32  320.22
6/18/16 22.7 091  68  79100  46  70272  70  7032  32  320.19
6/19/16 23.7 090  70  7997  50  72370  70  7032  32  320.20
6/20/16 21.9 091  70  8098  48  70270  70  7032  32  320.19
6/21/16 20.9 093  73  8288  51  72270  70  7032  32  320.18
6/22/16 23.6 093  75  8587  49  68372  70  7132  32  320.21
6/23/16 26.0 093  77  8588  51  69472  72  7232  32  320.23
6/24/16 19.5 0.5291  75  8394  59  76272  72  7232  32  320.17
6/25/16 26.0 095  75  85100  43  72272  72  7232  32  320.23
6/26/16 15.6 0.0991  73  81100  54  82172  72  7232  32  320.14
6/27/16 14.6 0.1290  72  79100  63  90272  72  7232  32  320.13
6/28/16 25.7 0.0691  70  78100  45  81272  72  7232  32  320.21
6/29/16 28.0 084  68  77100  45  72272  72  7232  32  320.23
6/30/16 27.1 088  61  75100  39  67172  72  7232  32  320.22
7/1/16 25.0 088  72  8077  53  65372  72  7232  32  320.21
7/2/16 19.9 091  68  7898  41  72172  72  7232  32  320.17
7/3/16 20.2 090  72  8286  55  69472  72  7232  32  320.18
7/4/16 13.6 0.1588  73  8199  60  78572  72  7232  32  320.12
7/5/16 23.5 090  73  81100  50  80472  72  7232  32  320.20
7/6/16 20.2 090  77  8397  55  78472  72  7232  32  320.18
7/7/16 23.9 091  79  8585  52  69573  72  7232  32  320.21
7/8/16 19.8 093  75  8487  55  73473  73  7332  32  320.18
7/9/16 11.6 1.0884  68  77100  67  86273  73  7332  32  320.10
7/10/16 24.2 090  72  80100  51  77173  73  7332  32  320.21
7/11/16 17.9 088  72  77100  61  81273  73  7332  32  320.15
7/12/16 26.1 091  73  8284  52  69473  72  7332  32  320.22
7/13/16 25.6 093  73  8389  50  70373  73  7332  32  320.22
7/14/16 14.4 0.2686  72  79100  62  81373  73  7332  32  320.13
7/15/16 22.8 1.8691  68  78100  53  83273  73  7332  32  320.19
7/16/16 25.8 0.0191  68  78100  53  81173  72  7332  32  320.22
7/17/16 25.4 093  72  8398  49  74173  73  7332  32  320.22
7/18/16 27.1 095  73  84100  47  75173  73  7332  32  320.24
7/19/16 24.1 095  75  85100  50  75173  73  7332  32  320.21
7/20/16 20.0 095  73  82100  53  83173  73  7332  32  320.18
7/21/16 26.1 095  73  84100  49  78173  73  7332  32  320.23
7/22/16 23.7 0.3697  72  83100  52  84273  73  7332  32  320.21
7/23/16 22.0 091  73  81100  62  85273  73  7332  32  320.19
7/24/16 25.0 093  75  83100  58  81273  73  7332  32  320.22
7/25/16 17.2 0.6391  73  80100  58  88275  73  7432  32  320.15
7/26/16 19.6 095  72  81100  52  83175  73  7432  32  320.17
7/27/16 20.0 0.3891  72  80100  63  87273  73  7332  32  320.17
7/28/16 20.6 0.1488  75  80100  66  88273  73  7332  32  320.18
7/29/16 11.3 0.0986  73  78100  75  94375  73  7432  32  320.10
7/30/16 21.0 090  72  78100  58  86275  73  7432  32  320.18
7/31/16 23.6 0.5490  70  79100  56  83273  73  7332  32  320.20
8/1/16 23.5 0.0193  70  79100  53  85273  73  7332  32  320.20
8/2/16 24.4 093  75  82100  56  81273  73  7332  32  320.21
8/3/16 23.4 093  72  82100  52  80175  73  7432  32  320.20
8/4/16 22.2 095  72  83100  54  80275  73  7532  32  320.19
8/5/16 23.0 097  72  84100  49  76275  75  7532  32  320.20
8/6/16 21.1 090  73  80100  60  84275  75  7532  32  320.18
8/7/16 21.5 090  73  80100  47  80275  75  7532  32  320.18
8/8/16 23.0 090  70  80100  52  77275  75  7532  32  320.20
8/9/16 23.5 091  70  81100  51  76175  73  7432  32  320.20
8/10/16 20.1 093  73  82100  58  82175  73  7432  32  320.18
8/11/16 17.1 090  73  81100  64  88175  73  7432  32  320.15
8/12/16 15.1 091  75  80100  66  91275  75  7532  32  320.14
8/13/16 14.1 0.0388  75  80100  61  87375  75  7532  32  320.13
8/14/16 17.9 0.5690  72  78100  60  88375  75  7532  32  320.15
8/15/16 13.0 0.0584  73  78100  67  94375  73  7532  32  320.12
8/16/16 7.6 0.8481  72  75100  85  99275  73  7432  32  320.07
8/17/16 10.4 0.0182  72  76100  72  94273  73  7332  32  320.09
8/18/16 10.0 0.0881  73  76100  72  96173  73  7332  32  320.09
8/19/16 12.6 0.7486  72  77100  63  90273  73  7332  32  320.11
8/20/16 12.0 0.1282  73  77100  75  95473  73  7332  32  320.11
8/21/16 20.0 0.0182  66  75100  51  82373  73  7332  32  320.17
8/22/16 21.4 084  61  72100  47  79173  73  7332  32  320.17
8/23/16 15.1 0.0186  66  76100  68  89273  73  7332  32  320.13
8/24/16 21.9 093  72  83100  49  78373  73  7332  32  320.19
8/25/16 17.7 093  75  82100  52  83173  73  7332  32  320.16
8/26/16 13.0 1.0393  72  79100  60  91273  73  7332  32  320.12
8/27/16 22.3 093  68  78100  48  85173  73  7332  32  320.19
8/28/16 22.0 093  72  81100  51  80173  73  7332  32  320.19
8/29/16 21.2 093  72  82100  50  79173  73  7332  32  320.18
8/30/16 22.5 095  73  83100  45  78173  73  7332  32  320.20
8/31/16 21.1 091  72  81100  54  80273  73  7332  32  320.18
9/1/16 9.5 082  70  75100  62  89375  73  7432  32  320.09
9/2/16 22.6 082  61  72100  46  70473  73  7332  32  320.18
9/3/16 22.9 086  59  72100  49  76273  73  7332  32  320.18
9/4/16 17.5 090  64  77100  56  83273  72  7332  32  320.15
9/5/16 19.4 091  73  81100  44  76373  73  7332  32  320.17
9/6/16 21.9 093  70  80100  36  72273  73  7332  32  320.19
9/7/16 21.5 093  70  8287  42  66273  73  7332  32  320.19
9/8/16 18.9 091  72  8286  54  71373  73  7332  32  320.17
9/9/16 19.1 091  73  82100  51  76373  73  7332  32  320.17
9/10/16 15.8 090  70  7984  51  71473  73  7332  32  320.14
9/11/16 22.7 084  57  70100  33  67273  73  7332  32  320.18
9/12/16 21.6 090  54  72100  37  68173  72  7332  32  320.17
9/13/16 15.4 093  63  76100  41  77172  72  7232  32  320.13
9/14/16 18.1 093  68  79100  44  77172  72  7232  32  320.16
9/15/16 17.2 095  70  80100  40  77172  72  7232  32  320.15
9/16/16 17.2 093  70  82100  36  68373  72  7232  32  320.15
9/17/16 10.1 0.4586  68  76100  58  84273  73  7332  32  320.09
9/18/16 8.6 0.1084  68  74100  68  95173  73  7332  32  320.08
9/19/16 18.1 088  64  76100  43  79173  72  7332  32  320.15
9/20/16 20.2 091  63  75100  33  72172  72  7232  32  320.17
9/21/16 17.2 090  63  74100  41  76172  72  7232  32  320.14
9/22/16 19.4 095  64  78100  34  70172  72  7232  32  320.17
9/23/16 17.5 093  66  79100  33  69172  72  7232  32  320.15
9/24/16 16.9 095  66  79100  35  70172  72  7232  32  320.15
9/25/16 17.4 095  66  80100  33  67172  72  7232  32  320.15
9/26/16 9.5 0.0573  57  68100  53  79372  72  7232  32  320.08
9/27/16 20.1 079  50  64100  23  65172  70  7132  32  320.15
9/28/16 18.0 086  54  6876  27  51470  70  7032  32  320.14
9/29/16 14.7 070  48  60100  51  72370  68  6932  32  320.10
9/30/16 8.5 072  55  63100  51  79268  68  6832  32  320.07
10/1/16 12.5 075  54  64100  48  78268  68  6832  32  320.10
10/2/16 14.6 081  55  68100  39  71268  68  6832  32  320.12
10/3/16 14.9 081  54  67100  44  76168  68  6832  32  320.12
10/4/16 15.9 088  55  72100  31  65368  68  6832  32  320.13
10/5/16 13.9 088  66  7581  40  60368  68  6832  32  320.12
10/6/16 17.7 090  64  7579  28  57368  68  6832  32  320.15
10/7/16 17.1 090  55  72100  29  68368  68  6832  32  320.14
10/8/16 18.4 073  50  6272  21  48568  68  6832  32  320.13
10/9/16 17.6 079  46  6186  24  51268  66  6732  32  320.13
10/10/16 14.3 079  46  6388  25  54266  66  6632  32  320.11
10/11/16 16.4 084  55  6975  35  55366  66  6632  32  320.13
10/12/16 10.9 082  57  6980  42  58366  66  6632  32  320.09
10/13/16 8.3 0.0372  59  64100  51  79366  66  6632  32  320.07
10/14/16 2.8 0.7966  55  60100  80  96266  66  6632  32  320.03
10/15/16 13.8 084  59  69100  42  78366  66  6632  32  320.11
10/16/16 15.0 086  63  72100  46  72466  66  6632  32  320.12
10/17/16 15.6 088  66  7596  42  68466  66  6632  32  320.13
10/18/16 14.8 088  70  7686  45  68568  66  6632  32  320.13
10/19/16 13.5 088  66  76100  40  72268  68  6832  32  320.12
10/20/16 5.5 0.0175  57  67100  63  85468  68  6832  32  320.05
10/21/16 15.6 063  46  54100  37  73468  68  6832  32  320.10
10/22/16 15.8 072  37  53100  29  67168  66  6632  32  320.10
10/23/16 15.0 077  50  6174  30  54366  64  6532  32  320.11
10/24/16 14.6 079  54  6476  39  58264  64  6432  32  320.11
10/25/16 14.5 079  45  62100  31  62164  64  6432  32  320.11
10/26/16 13.8 082  52  6784  26  55264  64  6432  32  320.11
10/27/16 11.9 079  61  6884  52  69264  64  6432  32  320.10
10/28/16 12.8 084  52  66100  39  76164  64  6432  32  320.10
10/29/16 13.9 084  59  70100  33  65264  64  6432  32  320.11
10/30/16 13.1 084  61  7277  38  60364  64  6432  32  320.11
10/31/16 11.6 088  63  7484  37  61364  64  6432  32  320.10
11/1/16 13.6 084  59  7186  33  59266  64  6632  32  320.11
11/2/16 7.9 082  63  7089  40  63266  66  6632  32  320.07
11/3/16 10.2 082  59  7093  48  70266  64  6632  32  320.09
11/4/16 13.8 073  54  63100  31  69466  66  6632  32  320.10
11/5/16 11.0 070  43  55100  32  64266  64  6532  32  320.07
11/6/16 12.5 079  45  5891  31  63164  63  6432  32  320.09
11/7/16 10.5 075  45  58100  30  68164  63  6332  32  320.08
11/8/16 3.8 0.1764  57  59100  77  98163  63  6332  32  320.04
11/9/16 13.2 063  48  57100  43  75463  63  6332  32  320.09
11/10/16 13.3 066  36  50100  35  72163  61  6232  32  32--
11/11/16 10.2 068  41  53100  41  68261  61  6132  32  320.07
11/12/16 13.0 059  41  5180  33  57361  61  6132  32  320.08
11/13/16 12.5 064  32  4786  33  62261  59  6032  32  32--
11/14/16 12.2 068  34  50100  30  65159  59  5932  32  320.07
11/15/16 11.9 0.0870  48  57100  35  68259  59  5932  32  320.08
11/16/16 11.9 079  45  6098  32  61259  59  5932  32  320.09
11/17/16 12.0 081  54  6674  26  51359  59  5932  32  320.10
11/18/16 9.8 0.7779  52  66100  46  65559  59  5932  32  320.08
11/19/16 12.6 050  37  4381  40  62461  59  5932  32  32--
11/20/16 12.2 052  30  4078  26  53159  57  5832  32  32--
11/21/16 11.8 057  27  41100  22  54157  55  5732  32  32--
11/22/16 8.8 068  34  4968  17  38355  55  5532  32  32--
11/23/16 2.9 0.5157  48  53100  40  80455  55  5532  32  320.03
11/24/16 2.4 057  50  51100  92  100355  55  5532  32  320.02
11/25/16 7.7 054  45  49100  66  85357  55  5532  32  32--
11/26/16 11.4 054  34  42100  50  84257  55  5632  32  32--
11/27/16 6.2 054  28  41100  46  78255  55  5532  32  32--
11/28/16 1.2 1.3461  50  55100  42  83655  54  5432  32  320.02
11/29/16 7.2 0.0268  45  57100  46  82355  54  5532  32  320.05
11/30/16 6.4 0.0461  45  51100  47  79355  55  5532  32  320.04
12/1/16 11.3 054  34  4382  34  60355  55  5532  32  32--
12/2/16 10.8 061  32  4583  31  57155  54  5432  32  32--
12/3/16 2.0 0.1246  41  43100  58  71254  54  5432  32  32--
12/4/16 1.4 0.3146  39  43100  100  100354  54  5432  32  32--
12/5/16 1.9 0.0146  41  43100  100  100354  54  5432  32  32--
12/6/16 3.1 1.0948  39  44100  74  98354  52  5332  32  32--
12/7/16 5.5 045  34  40100  59  84252  52  5232  32  32--
12/8/16 9.0 041  25  3477  42  58452  52  5232  32  32--
12/9/16 10.8 034  21  2778  46  62252  50  5132  32  32--
12/10/16 10.5 045  18  30100  29  65150  48  5032  32  32--
12/11/16 2.8 0.0555  34  4468  27  42548  48  4832  32  32--
12/12/16 8.2 0.6154  43  48100  57  88348  48  4832  32  32--
12/13/16 2.6 0.0646  37  42100  92  100350  48  5032  32  32--
12/14/16 5.4 041  30  35100  68  92450  50  5032  32  32--

 
Copyright ©2016 Biosystems Engineering & Soil Science · Webmaster · Disclaimer